createdAt,value
2019-03-28T00:01:21.995Z,41.90
2019-03-28T00:06:16.085Z,34.53
2019-03-28T00:11:10.053Z,39.70
2019-03-28T00:16:04.151Z,36.43
2019-03-28T00:20:58.230Z,37.70
2019-03-28T00:25:52.235Z,33.57
2019-03-28T00:30:48.277Z,36.13
2019-03-28T00:35:42.240Z,36.13
2019-03-28T00:40:36.351Z,37.90
2019-03-28T00:45:31.213Z,36.83
2019-03-28T00:50:25.424Z,39.20
2019-03-28T00:55:19.520Z,37.80
2019-03-28T01:00:14.519Z,37.27
2019-03-28T01:05:08.765Z,35.23
2019-03-28T01:10:04.125Z,35.23
2019-03-28T01:14:58.182Z,39.23
2019-03-28T01:19:52.083Z,35.70
2019-03-28T01:24:46.058Z,38.93
2019-03-28T01:29:40.011Z,39.83
2019-03-28T01:34:33.952Z,35.30
2019-03-28T01:39:27.932Z,35.53
2019-03-28T01:44:22.030Z,38.70
2019-03-28T01:49:15.988Z,40.73
2019-03-28T01:54:10.022Z,38.30
2019-03-28T01:59:04.008Z,37.60
2019-03-28T02:03:57.968Z,36.20
2019-03-28T02:08:52.032Z,40.80
2019-03-28T02:13:46.102Z,37.83
2019-03-28T02:18:40.052Z,39.57
2019-03-28T02:23:34.039Z,35.53
2019-03-28T02:28:28.130Z,38.23
2019-03-28T02:33:22.129Z,38.00
2019-03-28T02:38:16.094Z,37.50
2019-03-28T02:43:10.310Z,40.60
2019-03-28T02:48:04.365Z,40.43
2019-03-28T02:52:58.330Z,41.87
2019-03-28T02:57:52.318Z,39.20
2019-03-28T03:02:46.260Z,37.37
2019-03-28T03:07:41.643Z,36.67
2019-03-28T03:12:35.878Z,41.07
2019-03-28T03:17:29.848Z,38.80
2019-03-28T03:22:23.835Z,48.67
2019-03-28T03:27:17.804Z,39.30
2019-03-28T03:32:11.767Z,42.07
2019-03-28T03:37:05.886Z,40.37
2019-03-28T03:41:59.829Z,42.87
2019-03-28T03:46:54.064Z,41.27
2019-03-28T03:51:48.059Z,44.87
2019-03-28T03:56:42.055Z,48.80
2019-03-28T04:01:36.039Z,41.57
2019-03-28T04:06:29.995Z,44.43
2019-03-28T04:11:23.973Z,51.30
2019-03-28T04:16:17.963Z,49.20
2019-03-28T04:21:12.057Z,47.17
2019-03-28T04:26:06.222Z,46.07
2019-03-28T04:31:00.446Z,49.60
2019-03-28T04:35:54.405Z,46.97
2019-03-28T04:40:48.463Z,55.37
2019-03-28T04:45:42.396Z,52.83
2019-03-28T04:50:36.374Z,49.40
2019-03-28T04:55:30.863Z,48.90
2019-03-28T05:00:24.823Z,53.07
2019-03-28T05:05:18.805Z,51.67
2019-03-28T05:10:12.956Z,51.23
2019-03-28T05:15:08.632Z,50.37
2019-03-28T05:20:04.415Z,55.77
2019-03-28T05:24:58.728Z,60.17
2019-03-28T05:29:52.883Z,52.17
2019-03-28T05:34:46.937Z,51.93
2019-03-28T05:39:41.175Z,58.83
2019-03-28T05:44:35.135Z,59.37
2019-03-28T05:49:29.301Z,57.43
2019-03-28T05:54:23.281Z,60.00
2019-03-28T05:59:17.445Z,59.63
2019-03-28T06:04:11.410Z,59.33
2019-03-28T06:09:05.993Z,59.83
2019-03-28T06:13:59.984Z,54.50
2019-03-28T06:18:53.957Z,57.67
2019-03-28T06:23:48.005Z,58.20
2019-03-28T06:28:41.975Z,59.60
2019-03-28T06:33:38.344Z,56.53
2019-03-28T06:38:31.806Z,58.37
2019-03-28T06:43:25.888Z,64.07
2019-03-28T06:48:19.858Z,60.23
2019-03-28T06:53:13.830Z,66.27
2019-03-28T06:58:07.829Z,66.80
2019-03-28T07:03:01.814Z,62.80
2019-03-28T07:07:55.918Z,63.67
2019-03-28T07:12:49.919Z,63.70
2019-03-28T07:17:43.894Z,62.43
2019-03-28T07:22:38.280Z,68.23
2019-03-28T07:27:32.950Z,61.70
2019-03-28T07:32:27.123Z,59.60
2019-03-28T07:37:21.117Z,59.97
2019-03-28T07:42:15.203Z,68.87
2019-03-28T07:47:09.251Z,64.80
2019-03-28T07:52:03.324Z,60.53
2019-03-28T07:56:57.583Z,61.30
2019-03-28T08:01:51.647Z,64.67
2019-03-28T08:06:49.934Z,63.27
2019-03-28T08:11:41.727Z,64.50
2019-03-28T08:16:35.810Z,66.83
2019-03-28T08:21:29.915Z,65.60
2019-03-28T08:26:23.891Z,63.87
2019-03-28T08:31:17.893Z,68.97
2019-03-28T08:36:13.144Z,72.33
2019-03-28T08:41:07.430Z,65.43
2019-03-28T08:46:01.853Z,67.10
2019-03-28T08:50:55.944Z,60.40
2019-03-28T08:55:50.019Z,65.40
2019-03-28T09:00:52.407Z,67.90
2019-03-28T09:05:40.083Z,63.30
2019-03-28T09:10:34.267Z,69.97
2019-03-28T09:15:28.234Z,64.70
2019-03-28T09:20:22.215Z,69.17
2019-03-28T09:25:16.194Z,68.97
2019-03-28T09:30:10.904Z,63.77
2019-03-28T09:35:05.527Z,67.67
2019-03-28T09:39:59.483Z,61.83
2019-03-28T09:44:53.456Z,66.97
2019-03-28T09:49:47.441Z,61.80
2019-03-28T09:54:41.520Z,71.80
2019-03-28T09:59:35.516Z,60.53
2019-03-28T10:04:29.573Z,58.40
2019-03-28T10:09:23.642Z,59.37
2019-03-28T10:14:17.598Z,63.20
2019-03-28T10:19:11.890Z,63.07
2019-03-28T10:24:06.484Z,55.23
2019-03-28T10:29:00.567Z,53.77
2019-03-28T10:33:55.036Z,54.93
2019-03-28T10:38:49.008Z,51.70
2019-03-28T10:43:42.976Z,62.20
2019-03-28T10:48:36.974Z,57.53
2019-03-28T10:53:30.949Z,49.57
2019-03-28T10:58:25.093Z,43.90
2019-03-28T11:03:19.094Z,47.33
2019-03-28T11:08:13.065Z,47.98
2019-03-28T11:13:09.610Z,44.57
2019-03-28T11:18:03.156Z,45.17
2019-03-28T11:22:57.123Z,40.08
2019-03-28T11:27:51.120Z,37.90
2019-03-28T11:32:45.199Z,31.27
2019-03-28T11:37:39.332Z,32.28
2019-03-28T11:42:33.308Z,21.07
2019-03-28T11:47:27.333Z,14.03
2019-03-28T11:52:21.415Z,21.80
2019-03-28T11:57:15.963Z,22.80
2019-03-28T12:02:19.554Z,22.27
2019-03-28T12:07:06.209Z,21.80
2019-03-28T12:12:00.200Z,30.05
2019-03-28T12:16:54.359Z,34.95
2019-03-28T12:21:48.553Z,31.85
2019-03-28T12:26:42.532Z,29.95
2019-03-28T12:31:36.605Z,32.80
2019-03-28T12:36:30.711Z,30.88
2019-03-28T12:41:24.705Z,33.50
2019-03-28T12:46:18.683Z,33.48
2019-03-28T12:51:12.764Z,32.13
2019-03-28T12:56:07.030Z,33.42
2019-03-28T13:01:01.020Z,29.55
2019-03-28T13:05:55.120Z,32.93
2019-03-28T13:10:49.200Z,31.80
2019-03-28T13:15:43.137Z,36.95
2019-03-28T13:20:37.239Z,34.78
2019-03-28T13:25:31.417Z,34.55
2019-03-28T13:30:25.656Z,33.38
2019-03-28T13:35:19.634Z,41.18
2019-03-28T13:40:13.710Z,39.33
2019-03-28T13:45:09.020Z,40.40
2019-03-28T13:50:08.150Z,33.08
2019-03-28T13:55:03.916Z,36.88
2019-03-28T13:59:58.097Z,36.63
2019-03-28T14:04:52.546Z,36.40
2019-03-28T14:09:46.620Z,37.40
2019-03-28T14:14:40.616Z,40.28
2019-03-28T14:19:34.642Z,42.25
2019-03-28T14:24:28.602Z,44.77
2019-03-28T14:29:22.565Z,52.10
2019-03-28T14:34:16.527Z,49.53
2019-03-28T14:39:10.544Z,49.77
2019-03-28T14:44:04.514Z,45.15
2019-03-28T14:48:58.575Z,51.30
2019-03-28T14:53:52.511Z,48.70
2019-03-28T14:58:48.244Z,46.28
2019-03-28T15:03:42.250Z,45.78
2019-03-28T15:08:36.236Z,42.70
2019-03-28T15:13:30.364Z,39.13
2019-03-28T15:18:24.372Z,38.95
2019-03-28T15:23:18.453Z,42.45
2019-03-28T15:28:12.448Z,42.15
2019-03-28T15:33:06.459Z,45.58
2019-03-28T15:38:00.549Z,43.13
2019-03-28T15:42:54.524Z,46.25
2019-03-28T15:47:51.837Z,52.40
2019-03-28T15:52:44.533Z,51.58
2019-03-28T15:57:40.796Z,48.65
2019-03-28T16:02:34.556Z,50.60
2019-03-28T16:07:29.578Z,47.75
2019-03-28T16:12:23.750Z,48.95
2019-03-28T16:17:17.861Z,45.28
2019-03-28T16:22:12.014Z,45.83
2019-03-28T16:27:06.138Z,44.63
2019-03-28T16:32:00.252Z,49.53
2019-03-28T16:36:54.253Z,49.30
2019-03-28T16:41:48.373Z,47.17
2019-03-28T16:46:42.434Z,47.30
2019-03-28T16:51:36.440Z,46.65
2019-03-28T16:56:30.565Z,43.10
2019-03-28T17:01:24.576Z,48.13
2019-03-28T17:06:19.179Z,50.80
2019-03-28T17:11:13.203Z,47.30
2019-03-28T17:16:07.317Z,52.37
2019-03-28T17:21:01.500Z,56.00
2019-03-28T17:25:55.727Z,50.47
2019-03-28T17:30:49.835Z,52.93
2019-03-28T17:35:43.930Z,51.97
2019-03-28T17:40:37.912Z,55.12
2019-03-28T17:45:31.899Z,55.17
2019-03-28T17:50:25.935Z,56.07
2019-03-28T17:55:20.002Z,57.33
2019-03-28T18:00:14.214Z,57.97
2019-03-28T18:05:10.847Z,55.30
2019-03-28T18:10:05.192Z,61.00
2019-03-28T18:14:59.328Z,61.47
2019-03-28T18:19:53.539Z,59.80
2019-03-28T18:24:47.552Z,63.23
2019-03-28T18:29:41.634Z,63.57
2019-03-28T18:34:35.744Z,63.93
2019-03-28T18:39:29.817Z,64.37
2019-03-28T18:44:23.833Z,64.83
2019-03-28T18:49:17.931Z,63.83
2019-03-28T18:54:12.019Z,58.53
2019-03-28T18:59:06.409Z,63.73
2019-03-28T19:04:00.417Z,62.27
2019-03-28T19:08:54.590Z,61.07
2019-03-28T19:13:48.584Z,62.73
2019-03-28T19:18:42.725Z,58.63
2019-03-28T19:23:37.253Z,61.00
2019-03-28T19:28:31.310Z,60.60
2019-03-28T19:33:25.310Z,61.00
2019-03-28T19:38:19.429Z,65.17
2019-03-28T19:43:20.392Z,57.83
2019-03-28T19:48:09.426Z,64.57
2019-03-28T19:53:03.602Z,61.90
2019-03-28T19:57:57.721Z,60.27
2019-03-28T20:02:51.763Z,67.50
2019-03-28T20:07:46.031Z,66.67
2019-03-28T20:12:40.103Z,63.70
2019-03-28T20:17:34.298Z,69.27
2019-03-28T20:22:28.298Z,69.77
2019-03-28T20:27:23.074Z,86.57
2019-03-28T20:32:17.448Z,131.23
2019-03-28T20:37:11.735Z,91.57
2019-03-28T20:42:06.162Z,85.57
2019-03-28T20:47:00.211Z,84.23
2019-03-28T20:51:54.310Z,79.23
2019-03-28T20:56:48.568Z,80.70
2019-03-28T21:01:42.744Z,82.47
2019-03-28T21:06:36.935Z,81.55
2019-03-28T21:11:30.902Z,82.63
2019-03-28T21:16:25.037Z,81.83
2019-03-28T21:21:19.064Z,80.13
2019-03-28T21:26:13.158Z,77.17
2019-03-28T21:31:07.281Z,82.67
2019-03-28T21:36:01.394Z,88.97
2019-03-28T21:40:55.567Z,82.80
2019-03-28T21:45:49.681Z,77.97
2019-03-28T21:50:43.674Z,82.77
2019-03-28T21:55:37.770Z,81.33
2019-03-28T22:00:32.080Z,81.80
2019-03-28T22:05:28.624Z,85.90
2019-03-28T22:10:22.107Z,87.23
2019-03-28T22:15:16.234Z,95.03
2019-03-28T22:20:10.350Z,88.63
2019-03-28T22:25:05.591Z,88.23
2019-03-28T22:29:59.721Z,91.07
2019-03-28T22:34:53.769Z,99.30
2019-03-28T22:39:49.803Z,100.40
2019-03-28T22:44:43.922Z,89.93
2019-03-28T22:49:37.908Z,101.57
2019-03-28T22:54:31.981Z,96.80
2019-03-28T22:59:26.918Z,89.50
2019-03-28T23:04:21.273Z,92.53
2019-03-28T23:09:15.370Z,95.77
2019-03-28T23:14:09.362Z,91.77
2019-03-28T23:19:03.352Z,94.37
2019-03-28T23:23:57.437Z,94.57
2019-03-28T23:28:51.499Z,104.37
2019-03-28T23:33:45.484Z,92.70
2019-03-28T23:38:39.434Z,97.80
2019-03-28T23:43:33.645Z,98.00
2019-03-28T23:48:27.684Z,96.90
2019-03-28T23:53:21.652Z,102.10
2019-03-28T23:58:15.733Z,98.57
